createdAt,value
2018-06-23T00:01:13.365Z,3.27
2018-06-23T00:03:41.646Z,3.40
2018-06-23T00:06:09.872Z,2.50
2018-06-23T00:08:38.149Z,2.25
2018-06-23T00:11:06.155Z,3.13
2018-06-23T00:13:34.440Z,2.53
2018-06-23T00:16:03.313Z,2.95
2018-06-23T00:18:31.584Z,3.57
2018-06-23T00:21:00.736Z,2.90
2018-06-23T00:23:29.130Z,2.70
2018-06-23T00:26:02.836Z,2.70
2018-06-23T00:28:31.498Z,3.52
2018-06-23T00:31:00.970Z,3.07
2018-06-23T00:33:29.261Z,3.77
2018-06-23T00:35:57.560Z,2.30
2018-06-23T00:38:29.858Z,3.10
2018-06-23T00:40:58.145Z,3.37
2018-06-23T00:43:26.365Z,2.30
2018-06-23T00:45:54.649Z,2.90
2018-06-23T00:48:22.896Z,3.37
2018-06-23T00:50:51.273Z,3.00
2018-06-23T00:53:20.725Z,3.53
2018-06-23T00:55:49.141Z,2.63
2018-06-23T00:58:17.400Z,2.43
2018-06-23T01:00:46.177Z,3.00
2018-06-23T01:03:14.431Z,2.98
2018-06-23T01:05:42.680Z,2.83
2018-06-23T01:08:15.039Z,3.10
2018-06-23T01:10:43.363Z,2.50
2018-06-23T01:13:11.572Z,3.50
2018-06-23T01:15:39.829Z,3.33
2018-06-23T01:18:08.049Z,2.90
2018-06-23T01:20:36.586Z,2.93
2018-06-23T01:23:12.250Z,2.67
2018-06-23T01:25:40.472Z,3.60
2018-06-23T01:28:08.754Z,3.27
2018-06-23T01:30:37.021Z,2.63
2018-06-23T01:33:06.156Z,2.77
2018-06-23T01:35:34.388Z,3.50
2018-06-23T01:38:05.494Z,3.10
2018-06-23T01:40:34.030Z,3.30
2018-06-23T01:43:02.872Z,4.50
2018-06-23T01:45:31.097Z,2.65
2018-06-23T01:47:59.411Z,2.62
2018-06-23T01:50:27.630Z,3.40
2018-06-23T01:52:56.836Z,4.00
2018-06-23T01:55:25.097Z,3.20
2018-06-23T01:57:53.988Z,4.20
2018-06-23T02:00:22.280Z,4.23
2018-06-23T02:02:50.550Z,3.42
2018-06-23T02:05:18.828Z,3.63
2018-06-23T02:07:47.485Z,4.67
2018-06-23T02:10:21.216Z,4.60
2018-06-23T02:12:49.466Z,4.00
2018-06-23T02:15:17.733Z,3.98
2018-06-23T02:17:51.651Z,4.25
2018-06-23T02:20:26.003Z,5.07
2018-06-23T02:22:59.557Z,3.98
2018-06-23T02:25:33.445Z,4.40
2018-06-23T02:28:07.173Z,4.60
2018-06-23T02:30:41.136Z,4.47
2018-06-23T02:33:14.790Z,4.95
2018-06-23T02:35:44.100Z,4.45
2018-06-23T02:38:13.112Z,4.28
2018-06-23T02:40:44.373Z,3.93
2018-06-23T02:43:13.556Z,6.95
2018-06-23T02:45:41.777Z,4.20
2018-06-23T02:48:10.013Z,4.90
2018-06-23T02:50:39.162Z,4.53
2018-06-23T02:53:07.381Z,4.30
2018-06-23T02:55:38.524Z,5.47
2018-06-23T02:58:06.801Z,4.40
2018-06-23T03:00:35.076Z,4.40
2018-06-23T03:03:03.562Z,4.47
2018-06-23T03:05:31.833Z,5.30
2018-06-23T03:08:00.533Z,4.50
2018-06-23T03:10:32.301Z,4.30
2018-06-23T03:13:00.564Z,4.97
2018-06-23T03:15:29.050Z,4.95
2018-06-23T03:17:57.272Z,4.83
2018-06-23T03:20:25.813Z,4.70
2018-06-23T03:22:54.041Z,4.13
2018-06-23T03:25:22.349Z,5.17
2018-06-23T03:27:50.640Z,4.07
2018-06-23T03:30:18.866Z,4.23
2018-06-23T03:32:47.176Z,4.47
2018-06-23T03:35:15.977Z,4.03
2018-06-23T03:37:44.241Z,4.90
2018-06-23T03:40:16.528Z,5.00
2018-06-23T03:42:44.797Z,4.50
2018-06-23T03:45:13.986Z,4.17
2018-06-23T03:47:42.204Z,5.20
2018-06-23T03:50:10.252Z,4.93
2018-06-23T03:52:38.505Z,4.53
2018-06-23T03:55:11.842Z,5.22
2018-06-23T03:57:40.090Z,4.40
2018-06-23T04:00:09.610Z,5.33
2018-06-23T04:02:37.832Z,4.83
2018-06-23T04:05:06.244Z,4.30
2018-06-23T04:07:34.586Z,4.63
2018-06-23T04:10:02.977Z,3.57
2018-06-23T04:12:31.296Z,5.10
2018-06-23T04:14:59.553Z,3.77
2018-06-23T04:17:27.820Z,3.92
2018-06-23T04:19:56.222Z,4.93
2018-06-23T04:22:24.477Z,3.75
2018-06-23T04:24:54.304Z,3.33
2018-06-23T04:27:22.616Z,3.55
2018-06-23T04:29:51.064Z,3.40
2018-06-23T04:32:19.433Z,3.37
2018-06-23T04:34:47.770Z,3.47
2018-06-23T04:37:15.990Z,3.60
2018-06-23T04:39:44.233Z,3.67
2018-06-23T04:42:12.893Z,4.44
2018-06-23T04:44:41.236Z,3.30
2018-06-23T04:47:09.469Z,3.80
2018-06-23T04:49:38.081Z,4.40
2018-06-23T04:52:06.425Z,3.60
2018-06-23T04:54:34.705Z,4.35
2018-06-23T04:57:07.821Z,4.40
2018-06-23T04:59:36.050Z,4.00
2018-06-23T05:02:04.430Z,4.05
2018-06-23T05:04:33.569Z,4.12
2018-06-23T05:07:02.061Z,3.90
2018-06-23T05:09:30.315Z,3.92
2018-06-23T05:11:58.613Z,3.60
2018-06-23T05:14:27.803Z,3.57
2018-06-23T05:16:56.031Z,5.53
2018-06-23T05:19:25.078Z,4.10
2018-06-23T05:21:53.634Z,3.77
2018-06-23T05:24:21.878Z,4.30
2018-06-23T05:26:54.581Z,3.60
2018-06-23T05:29:23.769Z,4.28
2018-06-23T05:31:52.681Z,3.45
2018-06-23T05:34:20.785Z,3.67
2018-06-23T05:36:49.225Z,3.73
2018-06-23T05:39:17.477Z,4.20
2018-06-23T05:41:48.549Z,3.15
2018-06-23T05:44:17.640Z,3.60
2018-06-23T05:46:45.860Z,3.27
2018-06-23T05:49:14.089Z,3.87
2018-06-23T05:51:42.330Z,3.27
2018-06-23T05:54:10.852Z,3.70
2018-06-23T05:56:39.097Z,2.98
2018-06-23T05:59:07.340Z,3.20
2018-06-23T06:01:35.707Z,3.15
2018-06-23T06:04:04.949Z,2.47
2018-06-23T06:06:33.356Z,3.70
2018-06-23T06:09:01.659Z,2.70
2018-06-23T06:11:29.661Z,2.60
2018-06-23T06:13:58.213Z,3.20
2018-06-23T06:17:31.637Z,3.40
2018-06-23T06:20:02.730Z,2.70
2018-06-23T06:22:32.635Z,2.70
2018-06-23T06:25:00.896Z,2.85
2018-06-23T06:27:29.951Z,2.85
2018-06-23T06:29:58.716Z,3.00
2018-06-23T06:32:27.437Z,2.83
2018-06-23T06:34:55.881Z,2.75
2018-06-23T06:37:24.088Z,4.03
2018-06-23T06:39:52.321Z,2.65
2018-06-23T06:42:20.645Z,2.80
2018-06-23T06:44:48.611Z,2.47
2018-06-23T06:47:17.854Z,2.97
2018-06-23T06:49:46.209Z,3.00
2018-06-23T06:52:14.933Z,6.43
2018-06-23T06:54:44.247Z,3.50
2018-06-23T06:57:12.864Z,2.53
2018-06-23T06:59:41.084Z,2.12
2018-06-23T07:02:10.236Z,2.57
2018-06-23T07:04:39.355Z,2.27
2018-06-23T07:07:07.613Z,2.67
2018-06-23T07:09:35.835Z,4.57
2018-06-23T07:12:04.063Z,2.02
2018-06-23T07:14:33.896Z,2.27
2018-06-23T07:17:03.073Z,3.83
2018-06-23T07:19:31.321Z,3.30
2018-06-23T07:22:00.265Z,3.47
2018-06-23T07:24:28.684Z,2.85
2018-06-23T07:26:57.044Z,3.50
2018-06-23T07:29:25.029Z,2.90
2018-06-23T07:31:53.421Z,2.40
2018-06-23T07:34:21.630Z,3.00
2018-06-23T07:36:49.932Z,3.07
2018-06-23T07:39:18.267Z,2.80
2018-06-23T07:41:46.475Z,2.67
2018-06-23T07:44:18.309Z,3.03
2018-06-23T07:46:46.562Z,2.37
2018-06-23T07:49:14.837Z,3.72
2018-06-23T07:51:43.100Z,2.90
2018-06-23T07:54:11.330Z,3.10
2018-06-23T07:56:39.585Z,2.80
2018-06-23T07:59:07.892Z,2.90
2018-06-23T08:01:36.155Z,4.60
2018-06-23T08:04:04.921Z,4.40
2018-06-23T08:06:33.148Z,3.37
2018-06-23T08:09:01.361Z,2.40
2018-06-23T08:11:29.634Z,3.52
2018-06-23T08:13:58.316Z,3.50
2018-06-23T08:16:26.592Z,3.30
2018-06-23T08:18:54.868Z,3.50
2018-06-23T08:21:23.095Z,3.10
2018-06-23T08:23:51.310Z,2.60
2018-06-23T08:26:19.709Z,3.25
2018-06-23T08:28:47.878Z,2.60
2018-06-23T08:31:16.770Z,2.97
2018-06-23T08:33:46.860Z,2.87
2018-06-23T08:36:15.119Z,3.33
2018-06-23T08:38:43.970Z,3.27
2018-06-23T08:41:12.840Z,2.77
2018-06-23T08:43:41.189Z,3.50
2018-06-23T08:46:09.461Z,2.70
2018-06-23T08:48:37.488Z,2.70
2018-06-23T08:51:05.773Z,2.05
2018-06-23T08:53:34.351Z,1.87
2018-06-23T08:56:02.613Z,2.60
2018-06-23T08:58:30.848Z,3.10
2018-06-23T09:01:02.392Z,1.53
2018-06-23T09:03:30.836Z,2.02
2018-06-23T09:05:59.056Z,2.27
2018-06-23T09:08:27.275Z,1.90
2018-06-23T09:10:55.756Z,2.42
2018-06-23T09:13:24.099Z,1.87
2018-06-23T09:15:55.060Z,1.98
2018-06-23T09:18:23.404Z,2.37
2018-06-23T09:20:51.770Z,2.50
2018-06-23T09:23:21.186Z,3.20
2018-06-23T09:25:49.660Z,3.10
2018-06-23T09:28:17.979Z,4.10
2018-06-23T09:30:46.710Z,2.50
2018-06-23T09:33:15.760Z,2.30
2018-06-23T09:35:44.549Z,2.75
2018-06-23T09:38:13.561Z,2.17
2018-06-23T09:40:42.030Z,2.45
2018-06-23T09:43:12.560Z,2.80
2018-06-23T09:45:43.486Z,2.72
2018-06-23T09:48:12.177Z,3.93
2018-06-23T09:50:41.329Z,3.53
2018-06-23T09:53:10.034Z,1.90
2018-06-23T09:55:38.453Z,2.08
2018-06-23T09:58:07.332Z,2.07
2018-06-23T10:00:35.581Z,1.60
2018-06-23T10:03:03.877Z,3.60
2018-06-23T10:05:32.129Z,2.37
2018-06-23T10:08:01.228Z,2.10
2018-06-23T10:10:30.345Z,1.63
2018-06-23T10:12:58.596Z,1.70
2018-06-23T10:15:26.902Z,2.27
2018-06-23T10:17:56.025Z,2.25
2018-06-23T10:20:24.248Z,2.03
2018-06-23T10:22:52.515Z,1.52
2018-06-23T10:25:20.954Z,1.47
2018-06-23T10:27:49.207Z,1.80
2018-06-23T10:30:17.550Z,2.20
2018-06-23T10:32:47.404Z,2.50
2018-06-23T10:35:16.481Z,2.22
2018-06-23T10:37:45.054Z,2.00
2018-06-23T10:40:13.358Z,1.70
2018-06-23T10:42:42.529Z,1.72
2018-06-23T10:45:11.057Z,1.77
2018-06-23T10:47:45.972Z,2.10
2018-06-23T10:50:14.253Z,1.77
2018-06-23T10:52:42.598Z,1.50
2018-06-23T10:55:11.211Z,1.70
2018-06-23T10:57:39.524Z,1.90
2018-06-23T11:00:08.183Z,1.90
2018-06-23T11:02:36.403Z,1.73
2018-06-23T11:05:04.921Z,1.80
2018-06-23T11:07:33.449Z,2.13
2018-06-23T11:10:02.516Z,1.83
2018-06-23T11:12:31.192Z,1.55
2018-06-23T11:15:00.389Z,1.93
2018-06-23T11:17:32.521Z,2.13
2018-06-23T11:20:02.378Z,2.87
2018-06-23T11:22:30.721Z,1.27
2018-06-23T11:25:00.105Z,2.45
2018-06-23T11:27:29.140Z,1.90
2018-06-23T11:29:57.834Z,1.70
2018-06-23T11:32:27.132Z,1.67
2018-06-23T11:34:55.502Z,2.23
2018-06-23T11:37:23.805Z,1.70
2018-06-23T11:39:53.713Z,1.52
2018-06-23T11:42:22.585Z,1.60
2018-06-23T11:44:51.584Z,1.90
2018-06-23T11:47:23.705Z,1.57
2018-06-23T11:49:52.236Z,3.22
2018-06-23T11:52:20.624Z,1.90
2018-06-23T11:54:49.584Z,1.95
2018-06-23T11:57:17.668Z,1.95
2018-06-23T11:59:46.460Z,1.55
2018-06-23T12:02:14.782Z,2.20
2018-06-23T12:04:43.012Z,1.30
2018-06-23T12:07:11.261Z,2.27
2018-06-23T12:09:39.483Z,1.37
2018-06-23T12:12:07.751Z,2.00
2018-06-23T12:14:36.013Z,2.15
2018-06-23T12:17:05.161Z,1.53
2018-06-23T12:19:36.535Z,1.10
2018-06-23T12:22:04.759Z,1.30
2018-06-23T12:24:34.002Z,1.20
2018-06-23T12:27:02.528Z,1.52
2018-06-23T12:29:30.812Z,2.10
2018-06-23T12:32:01.120Z,2.70
2018-06-23T12:34:29.453Z,1.43
2018-06-23T12:36:58.052Z,1.80
2018-06-23T12:39:26.274Z,3.13
2018-06-23T12:41:54.780Z,2.30
2018-06-23T12:44:23.185Z,2.30
2018-06-23T12:46:51.441Z,2.00
2018-06-23T12:49:24.351Z,1.73
2018-06-23T12:51:53.129Z,2.10
2018-06-23T12:54:21.320Z,1.73
2018-06-23T12:56:49.920Z,1.85
2018-06-23T12:59:18.216Z,2.47
2018-06-23T13:01:46.549Z,2.10
2018-06-23T13:04:14.768Z,1.80
2018-06-23T13:06:43.028Z,1.50
2018-06-23T13:09:12.329Z,1.87
2018-06-23T13:11:40.650Z,1.37
2018-06-23T13:14:08.880Z,1.57
2018-06-23T13:16:37.667Z,1.65
2018-06-23T13:19:05.891Z,2.30
2018-06-23T13:21:36.892Z,1.70
2018-06-23T13:24:05.129Z,1.77
2018-06-23T13:26:33.426Z,2.30
2018-06-23T13:29:01.702Z,2.30
2018-06-23T13:31:29.939Z,1.98
2018-06-23T13:33:58.208Z,2.12
2018-06-23T13:36:26.425Z,2.10
2018-06-23T13:38:54.655Z,2.62
2018-06-23T13:41:22.906Z,1.50
2018-06-23T13:43:51.779Z,1.90
2018-06-23T13:46:20.141Z,1.50
2018-06-23T13:48:48.905Z,1.50
2018-06-23T13:51:20.707Z,1.30
2018-06-23T13:53:48.983Z,1.32
2018-06-23T13:56:17.569Z,2.00
2018-06-23T13:58:45.814Z,2.45
2018-06-23T14:01:14.116Z,2.10
2018-06-23T14:03:42.396Z,2.00
2018-06-23T14:06:13.649Z,1.12
2018-06-23T14:08:42.390Z,1.70
2018-06-23T14:11:10.621Z,1.50
2018-06-23T14:13:38.767Z,1.50
2018-06-23T14:16:06.935Z,1.90
2018-06-23T14:18:35.200Z,1.67
2018-06-23T14:21:03.651Z,1.70
2018-06-23T14:23:31.845Z,2.02
2018-06-23T14:26:00.111Z,2.07
2018-06-23T14:28:28.348Z,2.37
2018-06-23T14:30:56.873Z,1.40
2018-06-23T14:33:25.105Z,2.33
2018-06-23T14:35:56.705Z,1.83
2018-06-23T14:38:24.909Z,1.97
2018-06-23T14:40:53.198Z,1.93
2018-06-23T14:43:21.769Z,1.75
2018-06-23T14:45:50.045Z,2.70
2018-06-23T14:48:18.304Z,1.47
2018-06-23T14:50:46.643Z,1.70
2018-06-23T14:53:14.864Z,1.47
2018-06-23T14:55:43.525Z,1.67
2018-06-23T14:58:11.768Z,1.83
2018-06-23T15:00:39.992Z,2.23
2018-06-23T15:03:08.196Z,2.00
2018-06-23T15:05:36.425Z,1.45
2018-06-23T15:10:20.292Z,2.20
2018-06-23T15:12:59.996Z,2.20
2018-06-23T15:15:28.191Z,2.35
2018-06-23T15:17:56.449Z,1.50
2018-06-23T15:20:24.697Z,1.93
2018-06-23T15:22:52.946Z,1.80
2018-06-23T15:25:21.311Z,2.30
2018-06-23T15:27:50.249Z,2.05
2018-06-23T15:30:18.530Z,2.73
2018-06-23T15:32:46.963Z,1.95
2018-06-23T15:35:16.068Z,2.98
2018-06-23T15:37:44.968Z,2.30
2018-06-23T15:40:13.396Z,2.33
2018-06-23T15:42:41.814Z,2.20
2018-06-23T15:45:10.474Z,3.05
2018-06-23T15:47:38.905Z,2.77
2018-06-23T15:50:07.543Z,3.53
2018-06-23T15:52:35.910Z,2.75
2018-06-23T15:55:04.359Z,5.60
2018-06-23T15:57:33.874Z,4.05
2018-06-23T16:00:02.406Z,5.53
2018-06-23T16:02:30.907Z,4.70
2018-06-23T16:04:59.920Z,4.10
2018-06-23T16:07:32.875Z,3.02
2018-06-23T16:10:01.713Z,3.12
2018-06-23T16:12:31.077Z,3.63
2018-06-23T16:14:59.406Z,2.67
2018-06-23T16:17:27.814Z,3.00
2018-06-23T16:19:56.157Z,3.07
2018-06-23T16:22:28.411Z,3.07
2018-06-23T16:24:57.734Z,2.20
2018-06-23T16:27:26.436Z,2.60
2018-06-23T16:29:55.017Z,2.83
2018-06-23T16:32:23.312Z,2.25
2018-06-23T16:34:51.797Z,2.13
2018-06-23T16:37:19.948Z,2.85
2018-06-23T16:39:48.295Z,1.80
2018-06-23T16:42:17.180Z,4.07
2018-06-23T16:44:46.265Z,2.62
2018-06-23T16:47:14.688Z,2.33
2018-06-23T16:49:42.993Z,2.10
2018-06-23T16:52:11.349Z,2.57
2018-06-23T16:54:43.161Z,1.60
2018-06-23T16:57:12.425Z,2.75
2018-06-23T16:59:41.431Z,2.30
2018-06-23T17:02:09.815Z,3.53
2018-06-23T17:04:38.634Z,1.90
2018-06-23T17:07:07.384Z,2.60
2018-06-23T17:09:48.090Z,2.70
2018-06-23T17:12:16.374Z,1.90
2018-06-23T17:14:45.357Z,2.83
2018-06-23T17:17:13.725Z,2.37
2018-06-23T17:19:42.676Z,2.20
2018-06-23T17:22:10.949Z,2.43
2018-06-23T17:24:42.727Z,2.17
2018-06-23T17:27:11.058Z,2.33
2018-06-23T17:29:39.282Z,1.73
2018-06-23T17:32:07.502Z,2.37
2018-06-23T17:34:35.720Z,1.95
2018-06-23T17:37:05.232Z,2.80
2018-06-23T17:39:37.326Z,2.92
2018-06-23T17:42:05.710Z,2.75
2018-06-23T17:44:33.999Z,2.33
2018-06-23T17:47:02.026Z,1.97
2018-06-23T17:49:30.340Z,2.63
2018-06-23T17:51:58.329Z,2.00
2018-06-23T17:54:26.628Z,2.25
2018-06-23T17:56:54.965Z,3.47
2018-06-23T17:59:23.542Z,2.33
2018-06-23T18:01:51.889Z,1.97
2018-06-23T18:04:20.200Z,3.07
2018-06-23T18:06:48.483Z,2.42
2018-06-23T18:09:27.687Z,2.07
2018-06-23T18:11:55.928Z,1.90
2018-06-23T18:14:24.172Z,2.87
2018-06-23T18:16:52.516Z,2.30
2018-06-23T18:19:20.770Z,2.40
2018-06-23T18:21:49.508Z,2.33
2018-06-23T18:24:17.786Z,2.62
2018-06-23T18:26:45.992Z,2.70
2018-06-23T18:29:14.232Z,3.60
2018-06-23T18:31:42.527Z,2.67
2018-06-23T18:34:11.196Z,3.03
2018-06-23T18:36:39.476Z,2.40
2018-06-23T18:39:09.446Z,2.17
2018-06-23T18:41:37.668Z,3.35
2018-06-23T18:44:06.047Z,2.27
2018-06-23T18:46:34.300Z,2.73
2018-06-23T18:49:02.639Z,2.83
2018-06-23T18:51:31.153Z,2.77
2018-06-23T18:53:59.428Z,2.67
2018-06-23T18:56:27.704Z,2.30
2018-06-23T18:58:55.924Z,3.37
2018-06-23T19:01:24.217Z,2.70
2018-06-23T19:03:53.059Z,3.02
2018-06-23T19:06:21.284Z,3.00
2018-06-23T19:08:52.574Z,3.00
2018-06-23T19:11:23.665Z,3.43
2018-06-23T19:13:51.930Z,3.30
2018-06-23T19:16:20.225Z,3.10
2018-06-23T19:18:48.581Z,3.08
2018-06-23T19:21:16.837Z,3.30
2018-06-23T19:23:45.090Z,4.10
2018-06-23T19:26:16.503Z,3.00
2018-06-23T19:28:47.953Z,3.60
2018-06-23T19:31:16.232Z,3.30
2018-06-23T19:33:44.532Z,3.20
2018-06-23T19:36:12.810Z,3.40
2018-06-23T19:38:41.159Z,4.20
2018-06-23T19:41:25.721Z,3.70
2018-06-23T19:43:54.019Z,3.10
2018-06-23T19:46:25.194Z,4.07
2018-06-23T19:48:53.721Z,3.47
2018-06-23T19:51:22.156Z,3.80
2018-06-23T19:53:50.402Z,3.92
2018-06-23T19:56:22.449Z,3.50
2018-06-23T19:58:50.794Z,4.35
2018-06-23T20:01:19.139Z,4.80
2018-06-23T20:03:47.414Z,3.85
2018-06-23T20:06:15.739Z,3.85
2018-06-23T20:08:43.974Z,4.20
2018-06-23T20:11:15.955Z,4.40
2018-06-23T20:13:44.232Z,4.30
2018-06-23T20:16:12.781Z,4.40
2018-06-23T20:18:41.089Z,4.03
2018-06-23T20:21:09.320Z,3.60
2018-06-23T20:23:37.624Z,4.50
2018-06-23T20:26:05.901Z,4.33
2018-06-23T20:28:33.881Z,4.20
2018-06-23T20:31:02.145Z,4.22
2018-06-23T20:33:30.489Z,4.97
2018-06-23T20:35:58.713Z,4.10
2018-06-23T20:38:27.089Z,4.50
2018-06-23T20:40:55.391Z,4.90
2018-06-23T20:43:23.612Z,5.90
2018-06-23T20:45:51.918Z,5.50
2018-06-23T20:48:20.092Z,4.50
2018-06-23T20:50:48.357Z,5.03
2018-06-23T20:53:16.629Z,5.30
2018-06-23T20:55:44.901Z,4.23
2018-06-23T20:58:13.094Z,4.60
2018-06-23T21:00:41.829Z,5.53
2018-06-23T21:03:10.097Z,5.15
2018-06-23T21:05:38.100Z,4.00
2018-06-23T21:08:06.350Z,5.63
2018-06-23T21:10:43.024Z,4.90
2018-06-23T21:13:12.491Z,4.70
2018-06-23T21:15:40.521Z,5.30
2018-06-23T21:18:09.201Z,4.97
2018-06-23T21:20:37.513Z,5.57
2018-06-23T21:23:05.833Z,5.20
2018-06-23T21:25:34.168Z,4.90
2018-06-23T21:28:06.679Z,5.73
2018-06-23T21:30:34.971Z,5.12
2018-06-23T21:33:03.197Z,5.70
2018-06-23T21:35:32.108Z,6.10
2018-06-23T21:38:00.341Z,5.75
2018-06-23T21:40:28.588Z,5.20
2018-06-23T21:42:57.402Z,6.30
2018-06-23T21:45:25.634Z,5.70
2018-06-23T21:47:53.847Z,6.75
2018-06-23T21:50:22.072Z,5.57
2018-06-23T21:52:50.305Z,5.12
2018-06-23T21:55:18.576Z,5.95
2018-06-23T21:57:47.192Z,5.62
2018-06-23T22:00:36.637Z,6.00
2018-06-23T22:03:06.504Z,5.45
2018-06-23T22:05:35.445Z,5.87
2018-06-23T22:08:03.907Z,5.25
2018-06-23T22:10:32.528Z,5.60
2018-06-23T22:13:01.141Z,6.77
2018-06-23T22:15:30.417Z,7.30
2018-06-23T22:17:58.759Z,5.40
2018-06-23T22:20:27.034Z,6.78
2018-06-23T22:22:55.288Z,6.47
2018-06-23T22:25:23.900Z,5.90
2018-06-23T22:27:52.204Z,5.67
2018-06-23T22:30:21.388Z,6.07
2018-06-23T22:32:50.193Z,6.22
2018-06-23T22:35:18.472Z,5.30
2018-06-23T22:37:46.764Z,5.90
2018-06-23T22:40:15.035Z,6.03
2018-06-23T22:42:43.296Z,6.63
2018-06-23T22:45:11.622Z,6.13
2018-06-23T22:47:39.922Z,5.83
2018-06-23T22:50:09.249Z,5.90
2018-06-23T22:52:37.574Z,7.00
2018-06-23T22:55:06.012Z,6.27
2018-06-23T22:57:34.600Z,6.10
2018-06-23T23:00:02.940Z,6.27
2018-06-23T23:02:31.178Z,5.13
2018-06-23T23:04:59.502Z,5.63
2018-06-23T23:07:27.781Z,5.53
2018-06-23T23:09:55.988Z,6.20
2018-06-23T23:12:24.474Z,6.20
2018-06-23T23:14:52.740Z,6.33
2018-06-23T23:17:20.976Z,5.70
2018-06-23T23:19:48.967Z,6.15
2018-06-23T23:22:17.564Z,6.50
2018-06-23T23:24:45.857Z,6.33
2018-06-23T23:27:14.205Z,5.90
2018-06-23T23:29:43.113Z,6.53
2018-06-23T23:32:11.454Z,6.27
2018-06-23T23:34:39.976Z,9.43
2018-06-23T23:37:09.447Z,7.12
2018-06-23T23:39:38.462Z,7.43
2018-06-23T23:42:06.696Z,7.00
2018-06-23T23:44:34.945Z,6.42
2018-06-23T23:47:03.503Z,6.45
2018-06-23T23:49:31.727Z,7.27
2018-06-23T23:52:00.021Z,8.28
2018-06-23T23:54:28.199Z,7.20
2018-06-23T23:59:31.367Z,6.83
